KDOV/DOV METAR and TAF weather

Enter ICAO airport designator
Station Type Date Time Source
KDOV METAR 2019/04/25 21:56 UTC NOAA

KDOV 252156Z AUTO 11009KT 10SM BKN036 BKN060 16/10 A2989 RMK AO2 SLP125 T01580103 $


Station Type Date Time Source
KDOV Decoded METAR 2019/04/25 21:56 UTC NOAA

Dover Air Force Base, DE, United States (KDOV) 39-08N 075-28W
Apr 25, 2019 - 05:56 PM EDT / 2019.04.25 2156 UTC
Wind: from the ESE (110 degrees) at 10 MPH (9 KT):0
Visibility: 10 mile(s):0
Sky conditions: mostly cloudy
Temperature: 60.4 F (15.8 C)
Dew Point: 50.5 F (10.3 C)
Relative Humidity: 69%
Pressure (altimeter): 29.89 in. Hg (1012 hPa)
ob: KDOV 252156Z AUTO 11009KT 10SM BKN036 BKN060 16/10 A2989 RMK AO2 SLP125 T01580103
cycle: 22

Station Type Date Time Source
KDOV TAF 2019/04/25 16:10 UTC NOAA

TAF KDOV 251600Z 2516/2622 09012KT 9999 BKN060 QNH2989INS
BECMG 2523/2524 10009KT 9999 BKN020 QNH2985INS
BECMG 2602/2603 08006KT 8000 -SHRA OVC008 QNH2974INS
BECMG 2611/2612 14006KT 9999 NSW FEW020 QNH2972INS
BECMG 2617/2618 18020G30KT 8000 -SHRA SCT020 BKN030 520003 QNH2970INS TX21/2517Z TN12/2608Z

Example: see airport list